Time;durP1;ratioP1;P1;durP2;ratioP2;P2;SDS_P1;SDS_P2;PMS_P1;PMS_P2;Temp;Humidity;BMP_temperature;BMP_pressure;BME280_temperature;BME280_humidity;BME280_pressure;Samples;Min_cycle;Max_cycle;Signal;HPM_P1;HPM_P2
2024/02/03 08:32:49;;;;;;;0.40;0.40;;;6.60;99.90;;;;;;5995582;23;20459;31
2024/02/03 08:35:16;;;;;;;0.40;0.40;;;6.70;99.90;;;;;;4957448;29;20498;-81
2024/02/03 08:37:43;;;;;;;4.30;1.13;;;6.90;99.90;;;;;;4960169;28;20446;-81
2024/02/03 08:40:10;;;;;;;0.93;0.50;;;7.10;99.90;;;;;;4959895;29;20454;-81
2024/02/03 08:42:37;;;;;;;0.70;0.70;;;7.20;99.90;;;;;;4959636;28;20557;-81
2024/02/03 08:45:10;;;;;;;0.77;0.77;;;7.30;99.90;;;;;;4960432;28;20817;-80
2024/02/03 08:47:37;;;;;;;0.50;0.40;;;;;;;;;;4959539;29;20494;-81
2024/02/03 08:50:06;;;;;;;2.10;1.10;;;7.40;99.90;;;;;;4959883;28;20501;-81
2024/02/03 08:52:32;;;;;;;1.10;0.60;;;7.50;99.90;;;;;;4959588;29;20474;-80
2024/02/03 08:55:00;;;;;;;0.50;0.50;;;7.60;99.90;;;;;;4959798;28;20453;-81
2024/02/03 08:57:26;;;;;;;0.57;0.50;;;7.80;99.90;;;;;;4960438;29;20584;-81
2024/02/03 08:59:53;;;;;;;0.70;0.70;;;7.90;99.90;;;;;;4965378;29;20477;-81
2024/02/03 09:02:20;;;;;;;1.67;0.70;;;7.90;99.90;;;;;;4965878;28;20463;-82
2024/02/03 09:04:47;;;;;;;0.97;0.67;;;8.00;99.90;;;;;;4967927;28;20442;-82
2024/02/03 09:07:15;;;;;;;0.50;0.50;;;8.00;99.90;;;;;;4968969;29;20468;-81
2024/02/03 09:09:42;;;;;;;0.80;0.80;;;8.10;99.90;;;;;;4966331;29;20419;-80
2024/02/03 09:12:09;;;;;;;2.50;1.10;;;8.10;99.90;;;;;;4967248;28;20498;-82
2024/02/03 09:14:36;;;;;;;3.90;1.60;;;8.00;99.90;;;;;;4966242;28;20435;-81
2024/02/03 09:17:03;;;;;;;0.90;0.90;;;7.80;99.90;;;;;;4960208;28;20451;-82
2024/02/03 09:19:30;;;;;;;3.20;1.20;;;;;;;;;;4959566;29;20501;-82
2024/02/03 09:21:57;;;;;;;0.70;0.70;;;;;;;;;;4959805;28;20475;-82
2024/02/03 09:24:25;;;;;;;1.17;0.77;;;7.50;99.90;;;;;;4960304;29;20434;-82
2024/02/03 09:26:52;;;;;;;3.03;0.90;;;7.40;99.90;;;;;;4959514;28;20455;-82
2024/02/03 09:29:19;;;;;;;0.77;0.60;;;;;;;;;;4959532;28;20450;-82
2024/02/03 09:31:46;;;;;;;2.20;0.90;;;7.30;99.90;;;;;;4958333;28;20481;-82
2024/02/03 09:34:12;;;;;;;0.60;0.43;;;7.30;99.90;;;;;;4958951;28;21030;-82
2024/02/03 09:36:41;;;;;;;1.70;0.80;;;7.40;99.90;;;;;;4960680;28;20450;-82
2024/02/03 09:39:08;;;;;;;0.50;0.50;;;;;;;;;;4959751;28;20485;-82
2024/02/03 09:41:36;;;;;;;1.10;0.97;;;7.30;99.90;;;;;;4960118;28;20986;-82
2024/02/03 09:44:04;;;;;;;0.73;0.63;;;7.40;99.90;;;;;;4961908;28;20439;-80
2024/02/03 09:46:32;;;;;;;0.57;0.57;;;;;;;;;;4962959;28;20454;-80
2024/02/03 09:48:58;;;;;;;3.00;1.43;;;7.50;99.90;;;;;;4962447;28;20438;-81
2024/02/03 09:51:25;;;;;;;1.53;1.27;;;7.90;99.90;;;;;;4964512;28;20864;-81
2024/02/03 09:53:53;;;;;;;0.77;0.50;;;8.50;99.90;;;;;;4967567;29;20842;-82
2024/02/03 09:56:20;;;;;;;1.20;0.80;;;7.90;99.90;;;;;;4965104;29;20450;-81
2024/02/03 09:58:48;;;;;;;0.60;0.60;;;9.40;99.90;;;;;;4966255;29;20445;-82
2024/02/03 10:01:15;;;;;;;0.70;0.53;;;8.10;99.90;;;;;;4966681;28;20475;-82
2024/02/03 10:03:46;;;;;;;1.13;0.80;;;8.20;99.90;;;;;;4968766;29;20457;-82
2024/02/03 10:06:13;;;;;;;0.70;0.70;;;8.30;99.90;;;;;;4969612;29;20442;-82
2024/02/03 10:08:40;;;;;;;1.63;0.90;;;8.40;99.90;;;;;;4969453;29;20453;-82
2024/02/03 10:11:07;;;;;;;0.93;0.80;;;8.50;99.90;;;;;;4970259;28;20570;-82
2024/02/03 10:13:34;;;;;;;0.90;0.80;;;8.60;99.90;;;;;;4971597;28;20450;-82
2024/02/03 10:16:03;;;;;;;1.37;0.60;;;8.70;99.90;;;;;;4970885;29;20505;-82
2024/02/03 10:18:32;;;;;;;1.30;0.63;;;8.80;99.90;;;;;;4971162;29;20541;-82
2024/02/03 10:21:00;;;;;;;1.10;0.77;;;8.90;99.90;;;;;;4971537;28;20467;-82
2024/02/03 10:23:27;;;;;;;0.77;0.40;;;9.00;99.90;;;;;;4972818;28;20446;-83
2024/02/03 10:25:57;;;;;;;0.50;0.50;;;10.40;99.90;;;;;;4973126;28;20446;-82
2024/02/03 10:28:24;;;;;;;1.70;0.73;;;9.30;99.90;;;;;;4973183;29;20456;-82
2024/02/03 10:30:51;;;;;;;1.27;0.70;;;9.50;99.90;;;;;;4971457;29;20490;-82
2024/02/03 10:33:19;;;;;;;1.13;1.00;;;9.70;99.90;;;;;;4971408;28;20486;-83
2024/02/03 10:35:46;;;;;;;0.60;0.60;;;;;;;;;;4971500;28;20439;-83
2024/02/03 10:38:13;;;;;;;1.33;0.80;;;10.00;99.90;;;;;;4970410;29;21002;-83
2024/02/03 10:40:40;;;;;;;1.23;0.87;;;10.20;99.90;;;;;;4970672;29;20867;-83
2024/02/03 10:43:18;;;;;;;0.70;0.50;;;10.30;99.90;;;;;;4971273;29;20473;-83
2024/02/03 10:45:49;;;;;;;1.27;1.17;;;10.30;99.90;;;;;;4970229;29;20442;-83
2024/02/03 10:48:20;;;;;;;1.33;0.80;;;10.30;99.90;;;;;;4970836;29;20474;-83
2024/02/03 10:50:50;;;;;;;1.07;1.07;;;10.40;99.90;;;;;;4970476;29;20488;-83
2024/02/03 10:53:22;;;;;;;1.70;1.10;;;11.10;99.90;;;;;;4970115;29;20434;-83
2024/02/03 10:55:55;;;;;;;0.60;0.50;;;10.60;99.90;;;;;;4975255;29;20468;-84
2024/02/03 10:58:24;;;;;;;2.83;0.90;;;12.10;99.90;;;;;;4973055;29;20442;-84
2024/02/03 11:00:52;;;;;;;1.53;0.70;;;12.80;99.90;;;;;;4971833;28;20820;-84
2024/02/03 11:03:21;;;;;;;1.90;0.67;;;11.60;99.90;;;;;;4972216;28;20447;-84
2024/02/03 11:05:52;;;;;;;0.63;0.63;;;11.80;99.90;;;;;;4972752;28;20501;-84
2024/02/03 11:08:20;;;;;;;0.77;0.63;;;11.80;99.90;;;;;;4972934;29;20426;-84
2024/02/03 11:10:50;;;;;;;0.50;0.50;;;12.20;99.90;;;;;;4971402;29;20493;-83
2024/02/03 11:13:17;;;;;;;0.70;0.70;;;12.50;99.90;;;;;;4973034;28;20450;-84
2024/02/03 11:15:45;;;;;;;0.93;0.80;;;11.60;99.90;;;;;;4971415;29;20445;-83
2024/02/03 11:18:13;;;;;;;3.37;0.90;;;11.60;99.90;;;;;;4971637;28;20502;-83
2024/02/03 11:20:42;;;;;;;1.63;0.90;;;12.90;99.90;;;;;;4971493;28;20497;-83
2024/02/03 11:23:12;;;;;;;0.60;0.60;;;11.20;99.90;;;;;;4970686;29;20435;-83
2024/02/03 11:25:41;;;;;;;0.70;0.70;;;11.20;99.90;;;;;;4970524;29;20487;-83
2024/02/03 11:28:07;;;;;;;1.50;0.77;;;11.00;99.90;;;;;;4970696;28;20447;-84
2024/02/03 11:30:34;;;;;;;1.63;0.70;;;10.90;99.90;;;;;;4972284;29;20450;-83
2024/02/03 11:33:02;;;;;;;0.83;0.60;;;10.90;99.90;;;;;;4971661;28;20492;-83
2024/02/03 11:35:28;;;;;;;1.13;0.90;;;10.80;99.90;;;;;;4969234;29;20430;-83
2024/02/03 11:38:05;;;;;;;1.03;0.50;;;11.00;99.90;;;;;;4968466;28;20459;-83
2024/02/03 11:40:32;;;;;;;0.97;0.70;;;11.20;99.90;;;;;;4968785;29;20435;-84
2024/02/03 11:42:59;;;;;;;0.80;0.73;;;11.30;99.90;;;;;;4968614;29;20459;-83
2024/02/03 11:45:32;;;;;;;0.87;0.87;;;11.50;99.90;;;;;;4967862;29;20438;-83
2024/02/03 11:48:02;;;;;;;0.77;0.60;;;11.60;99.90;;;;;;4967639;29;20468;-84
2024/02/03 11:50:29;;;;;;;0.70;0.40;;;11.80;99.90;;;;;;4967475;29;20430;-83
2024/02/03 11:52:59;;;;;;;0.40;0.40;;;11.80;99.90;;;;;;4969159;28;20427;-84
2024/02/03 11:55:26;;;;;;;0.30;0.30;;;11.80;99.90;;;;;;4973894;28;20482;-84
2024/02/03 11:57:52;;;;;;;0.53;0.40;;;11.80;99.90;;;;;;4974138;29;20450;-84
2024/02/03 12:00:20;;;;;;;0.40;0.40;;;11.80;99.90;;;;;;4975722;28;20450;-84
2024/02/03 12:02:47;;;;;;;0.43;0.40;;;11.90;99.90;;;;;;4975146;28;20460;-84
2024/02/03 12:05:14;;;;;;;1.27;0.63;;;12.10;99.90;;;;;;4974670;28;20446;-84
2024/02/03 12:07:41;;;;;;;0.70;0.70;;;12.10;99.90;;;;;;4973937;28;20446;-84
2024/02/03 12:10:10;;;;;;;0.60;0.50;;;12.90;99.90;;;;;;4973623;29;20446;-84
2024/02/03 12:12:40;;;;;;;0.30;0.30;;;12.30;99.90;;;;;;4971678;28;20486;-83
2024/02/03 12:15:10;;;;;;;0.70;0.40;;;12.40;99.90;;;;;;4970432;28;20466;-83
2024/02/03 12:17:36;;;;;;;0.50;0.40;;;12.40;99.90;;;;;;4970841;29;20471;-83
2024/02/03 12:20:04;;;;;;;0.50;0.50;;;12.40;99.90;;;;;;4971025;28;20480;-84
2024/02/03 12:22:34;;;;;;;0.40;0.33;;;12.40;99.90;;;;;;4968878;29;20996;-83
2024/02/03 12:25:00;;;;;;;0.40;0.30;;;12.40;99.90;;;;;;4970482;29;20419;-83
2024/02/03 12:27:29;;;;;;;0.40;0.30;;;12.40;99.90;;;;;;4970616;29;20435;-83
2024/02/03 12:29:57;;;;;;;0.40;0.30;;;14.00;99.90;;;;;;4974441;29;20425;-85
2024/02/03 12:32:24;;;;;;;0.30;0.30;;;12.20;99.90;;;;;;4977807;29;20486;-86
2024/02/03 12:34:50;;;;;;;0.40;0.40;;;12.10;99.90;;;;;;4977654;28;20593;-84
2024/02/03 12:37:17;;;;;;;0.40;0.40;;;12.00;99.90;;;;;;4977155;28;20449;-84
2024/02/03 12:39:44;;;;;;;0.70;0.30;;;11.90;99.90;;;;;;4974673;28;20441;-84
2024/02/03 12:42:11;;;;;;;0.30;0.30;;;11.90;99.90;;;;;;4973731;28;20471;-84
2024/02/03 12:44:39;;;;;;;0.40;0.30;;;11.90;99.90;;;;;;4972547;29;21015;-85
2024/02/03 12:47:06;;;;;;;0.40;0.30;;;12.30;99.90;;;;;;4973525;28;20464;-85
2024/02/03 12:49:32;;;;;;;0.40;0.30;;;14.30;99.90;;;;;;4974305;28;20443;-85
2024/02/03 12:51:59;;;;;;;0.30;0.30;;;12.00;99.90;;;;;;4969942;28;20493;-85
2024/02/03 12:54:26;;;;;;;0.30;0.30;;;12.20;99.90;;;;;;4968117;28;20435;-84
2024/02/03 12:56:53;;;;;;;0.53;0.30;;;;;;;;;;4970555;28;20549;-84
2024/02/03 12:59:20;;;;;;;0.30;0.30;;;12.20;99.90;;;;;;4969933;28;20450;-84
2024/02/03 13:01:48;;;;;;;0.40;0.30;;;13.00;99.90;;;;;;4969101;28;20473;-84
2024/02/03 13:04:15;;;;;;;0.40;0.30;;;12.90;99.90;;;;;;4969665;29;20454;-85
2024/02/03 13:06:41;;;;;;;0.40;0.30;;;12.10;99.90;;;;;;4968643;28;20442;-85
2024/02/03 13:09:11;;;;;;;1.27;0.33;;;12.00;99.90;;;;;;4967592;28;20963;-84
2024/02/03 13:11:38;;;;;;;0.30;0.30;;;13.40;99.90;;;;;;4969163;28;20482;-84
2024/02/03 13:14:05;;;;;;;0.47;0.30;;;13.80;99.90;;;;;;4969610;29;20441;-84
2024/02/03 13:16:32;;;;;;;0.70;0.30;;;11.90;99.90;;;;;;4969518;28;20454;-84
2024/02/03 13:19:00;;;;;;;0.40;0.30;;;11.80;99.90;;;;;;4969015;29;20887;-84
2024/02/03 13:21:27;;;;;;;0.40;0.30;;;12.00;99.90;;;;;;4969528;28;20466;-84
2024/02/03 13:23:54;;;;;;;0.50;0.30;;;11.70;99.90;;;;;;4968610;28;20438;-84
2024/02/03 13:26:21;;;;;;;0.40;0.37;;;;;;;;;;4967199;28;20438;-84
2024/02/03 13:28:48;;;;;;;0.30;0.30;;;11.70;99.90;;;;;;4969070;29;20465;-85
2024/02/03 13:31:15;;;;;;;0.77;0.30;;;11.50;99.90;;;;;;4967020;29;20478;-85
2024/02/03 13:33:42;;;;;;;0.30;0.30;;;11.40;99.90;;;;;;4967868;28;20518;-86
2024/02/03 13:36:10;;;;;;;0.67;0.33;;;11.30;99.90;;;;;;4959079;28;20442;-82
2024/02/03 13:38:37;;;;;;;0.30;0.30;;;;;;;;;;4963749;28;20511;-85
2024/02/03 13:41:08;;;;;;;0.40;0.37;;;11.30;99.90;;;;;;4963990;28;20474;-84
2024/02/03 13:43:35;;;;;;;0.30;0.30;;;;;;;;;;4964921;29;20916;-85
2024/02/03 13:46:02;;;;;;;0.30;0.30;;;;;;;;;;4963211;28;20464;-85
2024/02/03 13:48:29;;;;;;;0.30;0.20;;;11.20;99.90;;;;;;4963676;28;20439;-85
2024/02/03 13:50:56;;;;;;;0.30;0.30;;;;;;;;;;4962957;28;20480;-85
2024/02/03 13:53:25;;;;;;;0.30;0.30;;;11.20;99.90;;;;;;4963245;28;21083;-85
2024/02/03 13:55:51;;;;;;;0.30;0.20;;;12.20;99.90;;;;;;4964165;29;20442;-84
2024/02/03 13:58:18;;;;;;;0.30;0.30;;;11.50;99.90;;;;;;4963803;28;20438;-84
2024/02/03 14:00:45;;;;;;;0.93;0.30;;;11.20;99.90;;;;;;4964134;28;20484;-84
2024/02/03 14:03:12;;;;;;;0.30;0.30;;;;;;;;;;4964550;28;20469;-85
2024/02/03 14:05:38;;;;;;;0.40;0.30;;;11.40;99.90;;;;;;4964127;28;20805;-84
2024/02/03 14:08:06;;;;;;;0.40;0.30;;;11.30;99.90;;;;;;4963309;28;20454;-84
2024/02/03 14:10:34;;;;;;;0.40;0.30;;;11.50;99.90;;;;;;4962873;28;20461;-85
2024/02/03 14:13:01;;;;;;;0.30;0.30;;;;;;;;;;4963076;28;20486;-84
2024/02/03 14:15:28;;;;;;;0.40;0.30;;;;;;;;;;4965196;28;20450;-84
2024/02/03 14:17:55;;;;;;;0.30;0.30;;;11.60;99.90;;;;;;4965508;28;20434;-84
2024/02/03 14:20:22;;;;;;;0.30;0.20;;;14.00;99.90;;;;;;4965334;29;20486;-84
2024/02/03 14:22:48;;;;;;;0.30;0.30;;;14.00;99.90;;;;;;4964735;29;20450;-85
2024/02/03 14:25:17;;;;;;;0.30;0.30;;;;;;;;;;4965140;28;20442;-85
2024/02/03 14:27:46;;;;;;;0.40;0.30;;;11.50;99.90;;;;;;4966254;28;20478;-84
2024/02/03 14:30:13;;;;;;;0.30;0.20;;;12.90;99.90;;;;;;4964400;28;20450;-84
2024/02/03 14:32:40;;;;;;;0.30;0.30;;;11.40;99.90;;;;;;4964464;28;20490;-84
2024/02/03 14:35:07;;;;;;;0.30;0.23;;;11.30;99.90;;;;;;4965571;29;20442;-84
2024/02/03 14:37:34;;;;;;;0.30;0.30;;;;;;;;;;4968803;28;20454;-84
2024/02/03 14:40:01;;;;;;;0.30;0.30;;;;;;;;;;4970881;29;20466;-84
2024/02/03 14:42:28;;;;;;;0.30;0.30;;;;;;;;;;4969426;28;20459;-84
2024/02/03 14:44:57;;;;;;;0.30;0.20;;;11.10;99.90;;;;;;4969197;28;20446;-84
2024/02/03 14:47:24;;;;;;;0.40;0.30;;;13.60;99.90;;;;;;4969213;28;20450;-84
2024/02/03 14:49:51;;;;;;;0.30;0.30;;;;;;;;;;4971949;29;20442;-85
2024/02/03 14:52:18;;;;;;;0.30;0.30;;;;;;;;;;4969183;29;20577;-85
2024/02/03 14:54:45;;;;;;;0.30;0.30;;;;;;;;;;4968397;29;20506;-84
2024/02/03 14:57:12;;;;;;;0.40;0.40;;;;;;;;;;4969390;29;20514;-84
2024/02/03 14:59:39;;;;;;;0.30;0.20;;;;;;;;;;4968723;28;20454;-84
2024/02/03 15:02:08;;;;;;;0.30;0.30;;;10.70;99.90;;;;;;4968924;28;20466;-84
2024/02/03 15:04:34;;;;;;;0.30;0.30;;;10.60;99.90;;;;;;4968652;28;20461;-84
2024/02/03 15:07:01;;;;;;;0.30;0.30;;;12.20;99.90;;;;;;4969993;28;20469;-84
2024/02/03 15:09:28;;;;;;;0.30;0.30;;;;;;;;;;4973347;28;20441;-85
2024/02/03 15:11:56;;;;;;;0.47;0.40;;;;;;;;;;4975233;28;20485;-84
2024/02/03 15:14:22;;;;;;;0.50;0.30;;;10.40;99.90;;;;;;4975352;28;20438;-85
2024/02/03 15:16:49;;;;;;;0.40;0.30;;;;;;;;;;4976266;28;20513;-84
2024/02/03 15:19:18;;;;;;;0.30;0.27;;;10.30;99.90;;;;;;4974892;28;20439;-84
2024/02/03 15:21:46;;;;;;;0.30;0.30;;;10.20;99.90;;;;;;4973583;29;20860;-85
2024/02/03 15:24:13;;;;;;;0.40;0.30;;;10.10;99.90;;;;;;4974160;29;20900;-84
2024/02/03 15:26:41;;;;;;;0.43;0.30;;;;;;;;;;4973893;28;20442;-85
2024/02/03 15:29:08;;;;;;;2.40;0.30;;;;;;;;;;4973218;29;20427;-84
2024/02/03 15:31:35;;;;;;;0.30;0.30;;;;;;;;;;4972484;28;20492;-84
2024/02/03 15:34:02;;;;;;;0.30;0.30;;;;;;;;;;4971748;28;20482;-84
2024/02/03 15:36:30;;;;;;;0.40;0.30;;;9.90;99.90;;;;;;4971305;28;20459;-84
2024/02/03 15:38:58;;;;;;;0.70;0.33;;;;;;;;;;4970743;28;20506;-84
2024/02/03 15:41:25;;;;;;;2.60;0.37;;;9.60;99.90;;;;;;4970422;28;20470;-84
2024/02/03 15:43:52;;;;;;;0.73;0.50;;;;;;;;;;4969889;28;20442;-83
2024/02/03 15:46:19;;;;;;;0.50;0.30;;;;;;;;;;4970584;29;20493;-83
2024/02/03 15:48:49;;;;;;;0.40;0.30;;;9.50;99.90;;;;;;4969363;28;20545;-83
2024/02/03 15:51:16;;;;;;;0.30;0.30;;;;;;;;;;4970697;29;20901;-83
2024/02/03 15:53:44;;;;;;;0.80;0.40;;;9.40;99.90;;;;;;4971097;29;20470;-83
2024/02/03 15:56:11;;;;;;;0.30;0.30;;;9.10;99.90;;;;;;4971519;28;20439;-83
2024/02/03 15:58:38;;;;;;;0.40;0.40;;;;;;;;;;4972782;29;20611;-82
2024/02/03 16:01:05;;;;;;;0.40;0.30;;;;;;;;;;4971298;29;20474;-83
2024/02/03 16:03:33;;;;;;;1.77;0.30;;;;;;;;;;4971139;28;20510;-82
2024/02/03 16:06:00;;;;;;;0.40;0.30;;;;;;;;;;4971165;29;20415;-83
2024/02/03 16:08:27;;;;;;;0.90;0.37;;;;;;;;;;4971210;28;20447;-82
2024/02/03 16:10:56;;;;;;;0.40;0.40;;;9.30;99.90;;;;;;4971183;29;20465;-83
2024/02/03 16:13:23;;;;;;;0.30;0.30;;;9.10;99.90;;;;;;4971286;29;20486;-83
2024/02/03 16:15:51;;;;;;;0.40;0.37;;;;;;;;;;4971348;29;20425;-82
2024/02/03 16:18:18;;;;;;;0.40;0.40;;;8.90;99.90;;;;;;4971592;28;20485;-82
2024/02/03 16:20:44;;;;;;;0.40;0.30;;;8.90;99.90;;;;;;4971512;28;20459;-82
2024/02/03 16:23:11;;;;;;;0.30;0.30;;;8.80;99.90;;;;;;4971203;28;20446;-82
2024/02/03 16:25:39;;;;;;;0.30;0.30;;;8.70;99.90;;;;;;4975023;28;20442;-82
2024/02/03 16:28:08;;;;;;;0.30;0.30;;;8.80;99.90;;;;;;4975241;28;20787;-83
2024/02/03 16:30:35;;;;;;;0.40;0.30;;;;;;;;;;4974500;28;20448;-83
2024/02/03 16:33:02;;;;;;;0.47;0.30;;;;;;;;;;4973729;28;20489;-83
2024/02/03 16:35:30;;;;;;;0.30;0.30;;;;;;;;;;4973111;28;20465;-83
2024/02/03 16:37:57;;;;;;;0.30;0.30;;;;;;;;;;4972615;29;20442;-84
2024/02/03 16:40:24;;;;;;;0.33;0.30;;;;;;;;;;4971985;29;20521;-84
2024/02/03 16:42:51;;;;;;;0.40;0.30;;;;;;;;;;4971084;29;20478;-83
2024/02/03 16:45:19;;;;;;;0.33;0.30;;;8.50;99.90;;;;;;4969605;29;20492;-82
2024/02/03 16:47:47;;;;;;;0.30;0.30;;;;;;;;;;4970292;29;20415;-82
2024/02/03 16:50:14;;;;;;;0.50;0.30;;;8.40;99.90;;;;;;4971204;28;20442;-82
2024/02/03 16:52:41;;;;;;;1.47;0.30;;;;;;;;;;4971359;29;20486;-82
2024/02/03 16:55:09;;;;;;;0.40;0.30;;;8.40;99.90;;;;;;4971090;29;20442;-82
2024/02/03 16:57:36;;;;;;;0.30;0.30;;;8.30;99.90;;;;;;4970013;29;20477;-82
2024/02/03 17:00:03;;;;;;;0.30;0.30;;;;;;;;;;4969866;28;20450;-82
2024/02/03 17:02:31;;;;;;;0.40;0.30;;;8.30;99.90;;;;;;4967997;28;20506;-83
2024/02/03 17:04:58;;;;;;;0.40;0.40;;;8.20;99.90;;;;;;4969437;29;20442;-82
2024/02/03 17:07:25;;;;;;;0.50;0.30;;;9.70;99.90;;;;;;4968627;28;20455;-82
2024/02/03 17:09:52;;;;;;;0.60;0.40;;;;;;;;;;4966875;29;20503;-82
2024/02/03 17:12:21;;;;;;;0.30;0.30;;;;;;;;;;4966101;29;20474;-81
2024/02/03 17:14:47;;;;;;;0.50;0.30;;;8.00;99.90;;;;;;4966581;28;20458;-81
2024/02/03 17:17:16;;;;;;;0.50;0.40;;;;;;;;;;4967448;29;20448;-82
2024/02/03 17:19:44;;;;;;;3.87;0.63;;;8.00;99.90;;;;;;4966745;28;20791;-82
2024/02/03 17:22:11;;;;;;;0.80;0.30;;;;;;;;;;4970406;29;20526;-82
2024/02/03 17:24:39;;;;;;;0.40;0.40;;;7.90;99.90;;;;;;4970590;29;20514;-83
2024/02/03 17:30:29;;;;;;;0.37;0.37;;;7.90;99.90;;;;;;4974744;29;20431;-81
2024/02/03 17:32:56;;;;;;;1.23;1.13;;;10.00;99.90;;;;;;4973873;28;20486;-83
2024/02/03 17:35:25;;;;;;;1.67;0.37;;;7.80;99.90;;;;;;4973880;29;20429;-82
2024/02/03 17:37:53;;;;;;;0.40;0.40;;;7.80;99.90;;;;;;4972629;29;20446;-82
2024/02/03 17:40:20;;;;;;;0.60;0.50;;;7.90;99.90;;;;;;4975231;29;20450;-82
2024/02/03 17:42:47;;;;;;;0.60;0.40;;;7.90;99.90;;;;;;4972976;29;20462;-82
2024/02/03 17:45:14;;;;;;;0.40;0.30;;;7.90;99.90;;;;;;4972388;28;20523;-82
2024/02/03 17:47:40;;;;;;;0.40;0.40;;;7.90;99.90;;;;;;4971854;29;20419;-82
2024/02/03 17:50:08;;;;;;;0.40;0.30;;;7.90;99.90;;;;;;4970919;28;20470;-82
2024/02/03 17:52:36;;;;;;;0.40;0.40;;;8.00;99.90;;;;;;4971168;28;20474;-82
2024/02/03 17:55:04;;;;;;;0.70;0.60;;;;;;;;;;4970259;28;20821;-82
2024/02/03 17:57:31;;;;;;;0.87;0.67;;;;;;;;;;4971421;29;20533;-82
2024/02/03 17:59:58;;;;;;;0.40;0.40;;;8.10;99.90;;;;;;4970848;28;20458;-82
2024/02/03 18:02:25;;;;;;;0.70;0.40;;;8.10;99.90;;;;;;4970564;29;20490;-82
2024/02/03 18:04:52;;;;;;;0.50;0.50;;;8.10;99.90;;;;;;4970897;28;20459;-83
2024/02/03 18:07:19;;;;;;;1.37;0.40;;;8.10;99.90;;;;;;4971269;28;20443;-83
2024/02/03 18:09:47;;;;;;;0.70;0.47;;;8.10;99.90;;;;;;4972424;29;20515;-83
2024/02/03 18:12:15;;;;;;;0.40;0.40;;;;;;;;;;4977149;28;20468;-83
2024/02/03 18:14:42;;;;;;;0.30;0.30;;;8.10;99.90;;;;;;4978246;29;20502;-84
2024/02/03 18:17:09;;;;;;;0.30;0.30;;;;;;;;;;4977503;28;20442;-82
2024/02/03 18:19:36;;;;;;;0.97;0.40;;;;;;;;;;4976699;28;20958;-83
2024/02/03 18:22:03;;;;;;;0.30;0.30;;;;;;;;;;4975829;29;20464;-83
2024/02/03 18:24:31;;;;;;;0.40;0.37;;;8.10;99.90;;;;;;4974535;28;20450;-83
2024/02/03 18:26:59;;;;;;;0.60;0.40;;;10.30;99.90;;;;;;4974561;29;20434;-83
2024/02/03 18:29:27;;;;;;;0.67;0.40;;;;;;;;;;4974568;28;20448;-83
2024/02/03 18:31:54;;;;;;;0.50;0.50;;;;;;;;;;4973423;28;20463;-83
2024/02/03 18:34:21;;;;;;;1.07;0.40;;;8.20;99.90;;;;;;4973716;28;20490;-83
2024/02/03 18:36:48;;;;;;;0.30;0.30;;;8.20;99.90;;;;;;4973738;29;20439;-82
2024/02/03 18:39:15;;;;;;;0.83;0.40;;;8.10;99.90;;;;;;4973982;28;20491;-82
2024/02/03 18:41:42;;;;;;;0.80;0.30;;;8.10;99.90;;;;;;4973451;28;20554;-82
2024/02/03 18:44:10;;;;;;;0.33;0.33;;;8.10;99.90;;;;;;4974186;29;20423;-83
2024/02/03 18:46:37;;;;;;;0.40;0.30;;;10.30;99.90;;;;;;4978307;28;20434;-83
2024/02/03 18:49:04;;;;;;;0.40;0.30;;;;;;;;;;4979576;28;20521;-83
2024/02/03 18:51:31;;;;;;;0.30;0.30;;;;;;;;;;4978847;28;20478;-82
2024/02/03 18:53:58;;;;;;;0.30;0.30;;;;;;;;;;4978101;28;20470;-83
2024/02/03 18:56:25;;;;;;;1.63;0.63;;;8.10;99.90;;;;;;4979144;29;20442;-83
2024/02/03 18:58:52;;;;;;;0.50;0.40;;;8.10;99.90;;;;;;4977938;29;20462;-83
2024/02/03 19:01:22;;;;;;;0.83;0.50;;;8.30;99.90;;;;;;4976547;29;20470;-81
2024/02/03 19:03:49;;;;;;;4.00;0.47;;;8.10;99.90;;;;;;4977971;29;20426;-82
2024/02/03 19:06:16;;;;;;;0.60;0.40;;;8.40;99.90;;;;;;4976878;29;20506;-83
2024/02/03 19:08:43;;;;;;;0.93;0.50;;;8.20;99.90;;;;;;4974915;28;20450;-84
2024/02/03 19:11:10;;;;;;;0.60;0.50;;;8.20;99.90;;;;;;4974696;29;20462;-84
2024/02/03 19:13:36;;;;;;;0.70;0.50;;;8.20;99.90;;;;;;4973591;29;20458;-84
2024/02/03 19:16:03;;;;;;;0.63;0.53;;;8.10;99.90;;;;;;4974034;28;20468;-82
2024/02/03 19:18:32;;;;;;;0.40;0.40;;;8.10;99.90;;;;;;4973029;29;20521;-83
2024/02/03 19:20:59;;;;;;;0.30;0.30;;;;;;;;;;4973874;29;20980;-83
2024/02/03 19:23:28;;;;;;;0.40;0.40;;;8.10;99.90;;;;;;4972242;28;20456;-83
2024/02/03 19:25:55;;;;;;;0.40;0.40;;;8.40;99.90;;;;;;4974396;29;20449;-82
2024/02/03 19:28:22;;;;;;;0.73;0.43;;;8.00;99.90;;;;;;4972156;29;20513;-82
2024/02/03 19:30:49;;;;;;;0.40;0.40;;;10.50;99.90;;;;;;4971746;29;20484;-82
2024/02/03 19:33:15;;;;;;;0.40;0.40;;;8.10;99.90;;;;;;4974750;28;20482;-82
2024/02/03 19:35:44;;;;;;;0.70;0.70;;;8.10;99.90;;;;;;4972945;28;20458;-83
2024/02/03 19:38:11;;;;;;;0.50;0.50;;;8.20;99.90;;;;;;4972878;29;20545;-82
2024/02/03 19:40:37;;;;;;;0.67;0.40;;;8.10;99.90;;;;;;4973448;29;20451;-81
2024/02/03 19:43:04;;;;;;;1.07;0.50;;;8.10;99.90;;;;;;4972476;29;20485;-82
2024/02/03 19:45:31;;;;;;;0.63;0.60;;;8.10;99.90;;;;;;4970954;29;20447;-81
2024/02/03 19:47:58;;;;;;;0.40;0.40;;;8.10;99.90;;;;;;4970727;29;20442;-82
2024/02/03 19:50:24;;;;;;;0.50;0.33;;;8.10;99.90;;;;;;4971109;28;20439;-82
2024/02/03 19:52:52;;;;;;;1.13;0.60;;;8.10;99.90;;;;;;4970109;29;20952;-82
2024/02/03 19:55:19;;;;;;;0.43;0.43;;;8.10;99.90;;;;;;4974395;29;20482;-81
2024/02/03 19:57:46;;;;;;;0.40;0.30;;;8.10;99.90;;;;;;4978409;28;20441;-83
2024/02/03 20:00:14;;;;;;;0.97;0.67;;;8.90;99.90;;;;;;4977967;29;20419;-81
2024/02/03 20:02:41;;;;;;;0.37;0.33;;;8.10;99.90;;;;;;4973122;29;20476;-81
2024/02/03 20:05:08;;;;;;;0.50;0.50;;;8.10;99.90;;;;;;4969143;29;20441;-82
2024/02/03 20:07:36;;;;;;;1.37;0.70;;;8.10;99.90;;;;;;4971450;28;20458;-82
2024/02/03 20:10:05;;;;;;;0.40;0.30;;;8.10;99.90;;;;;;4971128;28;20454;-82
2024/02/03 20:12:33;;;;;;;0.60;0.40;;;;;;;;;;4969182;28;20467;-82
2024/02/03 20:15:00;;;;;;;2.00;0.80;;;;;;;;;;4967322;28;20474;-82
2024/02/03 20:17:27;;;;;;;0.40;0.40;;;;;;;;;;4968877;28;20482;-81
2024/02/03 20:19:54;;;;;;;0.40;0.30;;;;;;;;;;4968722;29;20513;-82
2024/02/03 20:22:22;;;;;;;0.80;0.40;;;;;;;;;;4969996;28;20466;-81
2024/02/03 20:24:48;;;;;;;2.63;0.50;;;8.10;99.90;;;;;;4969957;29;20823;-81
2024/02/03 20:27:16;;;;;;;0.57;0.30;;;8.10;99.90;;;;;;4967930;28;20439;-82
2024/02/03 20:29:43;;;;;;;0.40;0.40;;;8.00;99.90;;;;;;4967650;29;20811;-82
2024/02/03 20:32:10;;;;;;;0.30;0.30;;;8.10;99.90;;;;;;4964961;28;20559;-82
2024/02/03 20:34:37;;;;;;;0.50;0.30;;;8.10;99.90;;;;;;4966565;28;20577;-82
2024/02/03 20:37:06;;;;;;;0.40;0.33;;;8.10;99.90;;;;;;4967343;29;20458;-82
2024/02/03 20:39:33;;;;;;;1.27;0.40;;;8.10;99.90;;;;;;4968578;29;20473;-82
2024/02/03 20:41:59;;;;;;;0.40;0.40;;;8.00;99.90;;;;;;4967878;28;21026;-81
2024/02/03 20:44:28;;;;;;;0.50;0.50;;;8.00;99.90;;;;;;4965108;28;20459;-81
2024/02/03 20:46:55;;;;;;;0.30;0.30;;;;;;;;;;4965966;28;20442;-82
2024/02/03 20:49:25;;;;;;;0.40;0.40;;;;;;;;;;4966641;28;20458;-82
2024/02/03 20:51:52;;;;;;;0.40;0.30;;;8.00;99.90;;;;;;4966737;29;20529;-82
2024/02/03 20:54:18;;;;;;;0.63;0.40;;;10.80;99.90;;;;;;4966558;28;20478;-82
2024/02/03 20:56:45;;;;;;;1.27;0.50;;;9.40;99.90;;;;;;4966253;28;20439;-82
2024/02/03 20:59:13;;;;;;;0.83;0.50;;;8.60;99.90;;;;;;4964853;28;20450;-81
2024/02/03 21:01:41;;;;;;;0.40;0.33;;;8.00;99.90;;;;;;4966104;29;20474;-82
2024/02/03 21:04:11;;;;;;;0.53;0.30;;;9.10;99.90;;;;;;4965966;28;20446;-82
2024/02/03 21:06:38;;;;;;;1.07;0.80;;;8.00;99.90;;;;;;4965397;29;20442;-82
2024/02/03 21:09:08;;;;;;;0.40;0.30;;;;;;;;;;4960783;29;20936;-81
2024/02/03 21:11:37;;;;;;;0.40;0.40;;;;;;;;;;4960292;29;20493;-81
2024/02/03 21:14:05;;;;;;;0.40;0.30;;;7.90;99.90;;;;;;4959591;28;20556;-80
2024/02/03 21:17:15;;;;;;;0.40;0.40;;;7.90;99.90;;;;;;4959275;29;20462;-81
2024/02/03 21:19:44;;;;;;;0.40;0.30;;;7.80;99.90;;;;;;4958940;29;20441;-80
2024/02/03 21:22:11;;;;;;;0.40;0.33;;;7.80;99.90;;;;;;4961803;29;20517;-81
2024/02/03 21:24:39;;;;;;;0.40;0.40;;;7.70;99.90;;;;;;4964789;29;20458;-81
2024/02/03 21:27:06;;;;;;;0.30;0.30;;;8.00;99.90;;;;;;4962251;29;20454;-81
2024/02/03 21:29:33;;;;;;;0.60;0.60;;;;;;;;;;4961630;28;20805;-80
2024/02/03 21:32:00;;;;;;;0.30;0.30;;;7.70;99.90;;;;;;4958700;28;20466;-81
2024/02/03 21:34:28;;;;;;;2.10;0.40;;;7.70;99.90;;;;;;4958642;28;20482;-80
2024/02/03 21:36:55;;;;;;;0.30;0.30;;;;;;;;;;4958487;28;20446;-81
2024/02/03 21:39:22;;;;;;;0.30;0.30;;;7.70;99.90;;;;;;4957557;29;20955;-81
2024/02/03 21:41:49;;;;;;;0.40;0.30;;;7.70;99.90;;;;;;4958394;29;20490;-81
2024/02/03 21:44:16;;;;;;;0.40;0.30;;;8.30;99.90;;;;;;4962035;28;20522;-81
2024/02/03 21:46:42;;;;;;;0.40;0.30;;;7.70;99.90;;;;;;4963050;28;20457;-81
2024/02/03 21:49:09;;;;;;;0.30;0.30;;;7.70;99.90;;;;;;4961361;29;20472;-81
2024/02/03 21:51:38;;;;;;;0.30;0.30;;;7.80;99.90;;;;;;4960106;28;20829;-81
2024/02/03 21:54:05;;;;;;;0.40;0.40;;;7.80;99.90;;;;;;4958827;29;20976;-81